createdAt,value
2022-12-12T00:43:31.303Z,9.65
2022-12-12T00:46:02.076Z,9.48
2022-12-12T00:48:29.164Z,9.43
2022-12-12T00:50:56.565Z,9.13
2022-12-12T00:53:24.066Z,9.35
2022-12-12T00:55:57.876Z,9.82
2022-12-12T00:58:25.684Z,9.63
2022-12-12T01:00:53.022Z,9.75
2022-12-12T01:03:20.669Z,10.70
2022-12-12T01:05:47.527Z,10.05
2022-12-12T01:08:34.478Z,10.27
2022-12-12T01:11:01.113Z,9.43
2022-12-12T01:13:28.132Z,9.30
2022-12-12T01:15:54.807Z,9.52
2022-12-12T01:18:52.795Z,9.35
2022-12-12T01:24:36.251Z,9.88
2022-12-12T01:27:03.010Z,9.60
2022-12-12T01:29:29.606Z,9.18
2022-12-12T01:31:56.193Z,9.88
2022-12-12T01:34:22.756Z,10.02
2022-12-12T01:36:49.364Z,9.13
2022-12-12T01:39:34.078Z,9.18
2022-12-12T01:42:00.817Z,8.75
2022-12-12T01:44:49.154Z,8.70
2022-12-12T01:47:18.732Z,8.15
2022-12-12T01:53:19.044Z,8.00
2022-12-12T01:55:48.074Z,7.60
2022-12-12T01:58:15.472Z,8.00
2022-12-12T02:00:42.511Z,6.87
2022-12-12T02:03:09.616Z,6.78
2022-12-12T02:05:48.973Z,7.03
2022-12-12T02:08:18.058Z,7.50
2022-12-12T02:10:45.722Z,7.55
2022-12-12T02:13:17.233Z,7.75
2022-12-12T02:16:19.354Z,7.57
2022-12-12T02:19:10.968Z,8.05
2022-12-12T02:21:50.070Z,7.65
2022-12-12T02:24:38.535Z,7.68
2022-12-12T02:27:21.900Z,8.73
2022-12-12T02:53:32.461Z,8.80
2022-12-12T02:56:26.984Z,9.10
2022-12-12T03:09:53.401Z,9.23
2022-12-12T03:12:50.398Z,9.00
2022-12-12T03:15:24.455Z,8.48
2022-12-12T03:18:00.688Z,8.63
2022-12-12T03:20:37.169Z,8.88
2022-12-12T03:23:56.463Z,9.10
2022-12-12T03:26:48.628Z,8.43
2022-12-12T03:29:19.987Z,8.43
2022-12-12T03:39:42.068Z,7.35
2022-12-12T03:42:21.887Z,7.10
2022-12-12T03:44:55.547Z,7.60
2022-12-12T03:47:29.740Z,7.15
2022-12-12T03:50:05.006Z,7.47
2022-12-12T03:52:40.802Z,8.52
2022-12-12T03:55:15.223Z,7.40
2022-12-12T04:18:41.098Z,7.60
2022-12-12T04:41:31.529Z,7.97
2022-12-12T04:44:02.009Z,8.25
2022-12-12T04:46:33.261Z,7.90
2022-12-12T04:49:08.298Z,7.57
2022-12-12T04:51:43.993Z,8.40
2022-12-12T04:54:19.948Z,7.10
2022-12-12T04:56:52.331Z,7.10
2022-12-12T04:59:19.592Z,7.12
2022-12-12T05:02:02.600Z,7.50
2022-12-12T05:04:37.111Z,7.15
2022-12-12T05:07:48.303Z,7.90
2022-12-12T05:10:43.532Z,6.82
2022-12-12T05:13:22.238Z,7.32
2022-12-12T05:15:53.076Z,7.93
2022-12-12T05:18:20.147Z,7.68
2022-12-12T05:20:46.716Z,7.97
2022-12-12T05:23:13.374Z,6.72
2022-12-12T05:26:06.399Z,8.23
2022-12-12T05:28:32.994Z,7.15
2022-12-12T05:30:59.575Z,7.68
2022-12-12T05:33:26.123Z,7.53
2022-12-12T05:40:00.482Z,7.22
2022-12-12T05:42:27.056Z,7.85
2022-12-12T05:44:53.571Z,8.27
2022-12-12T05:47:20.103Z,8.35
2022-12-12T05:49:46.742Z,8.13
2022-12-12T05:52:13.364Z,8.57
2022-12-12T05:54:40.531Z,9.18
2022-12-12T05:57:07.266Z,9.00
2022-12-12T05:59:33.959Z,9.00
2022-12-12T06:02:00.708Z,9.70
2022-12-12T06:04:27.347Z,8.98
2022-12-12T06:06:54.128Z,9.93
2022-12-12T06:09:20.699Z,9.18
2022-12-12T06:11:47.310Z,9.73
2022-12-12T06:14:14.005Z,9.35
2022-12-12T06:16:40.777Z,9.73
2022-12-12T06:27:12.896Z,9.23
2022-12-12T06:29:39.655Z,9.27
2022-12-12T06:32:06.526Z,9.52
2022-12-12T06:34:33.313Z,8.90
2022-12-12T06:37:00.008Z,8.82
2022-12-12T06:39:26.579Z,9.48
2022-12-12T06:41:53.165Z,9.00
2022-12-12T06:44:22.306Z,9.35
2022-12-12T06:52:47.044Z,10.65
2022-12-12T06:55:14.237Z,11.15
2022-12-12T06:57:41.096Z,11.23
2022-12-12T07:00:08.745Z,10.50
2022-12-12T07:02:35.982Z,10.77
2022-12-12T07:05:02.967Z,10.65
2022-12-12T07:07:29.559Z,12.98
2022-12-12T07:09:56.107Z,11.52
2022-12-12T07:12:22.867Z,14.07
2022-12-12T07:14:49.871Z,13.40
2022-12-12T07:17:16.502Z,13.82
2022-12-12T07:19:43.132Z,18.75
2022-12-12T07:22:10.620Z,15.18
2022-12-12T07:24:38.055Z,15.65
2022-12-12T07:27:23.435Z,17.42
2022-12-12T07:29:50.019Z,11.18
2022-12-12T07:32:16.602Z,13.60
2022-12-12T07:34:43.452Z,9.70
2022-12-12T07:41:27.049Z,9.90
2022-12-12T07:43:53.744Z,11.70
2022-12-12T07:46:23.544Z,11.00
2022-12-12T07:48:50.555Z,10.32
2022-12-12T07:51:18.308Z,10.25
2022-12-12T07:53:45.223Z,10.57
2022-12-12T07:56:14.406Z,10.02
2022-12-12T07:58:41.055Z,9.18
2022-12-12T08:01:15.495Z,9.75
2022-12-12T08:03:44.068Z,14.90
2022-12-12T08:06:11.213Z,13.15
2022-12-12T08:08:38.375Z,10.60
2022-12-12T08:11:10.071Z,10.25
2022-12-12T08:13:39.022Z,13.02
2022-12-12T08:16:07.382Z,8.45
2022-12-12T08:18:34.267Z,8.60
2022-12-12T08:21:00.853Z,10.52
2022-12-12T08:23:27.714Z,9.68
2022-12-12T08:25:54.304Z,10.68
2022-12-12T08:28:20.972Z,9.13
2022-12-12T08:30:51.182Z,9.88
2022-12-12T08:33:18.283Z,10.43
2022-12-12T08:35:44.924Z,10.02
2022-12-12T08:38:11.641Z,12.68
2022-12-12T08:40:38.282Z,8.10
2022-12-12T08:43:04.991Z,10.35
2022-12-12T08:45:31.711Z,9.98
2022-12-12T08:47:59.262Z,9.07
2022-12-12T08:50:26.399Z,7.53
2022-12-12T08:52:53.032Z,9.63
2022-12-12T08:55:20.231Z,9.18
2022-12-12T08:57:46.942Z,8.77
2022-12-12T09:00:14.232Z,9.23
2022-12-12T09:02:41.805Z,9.57
2022-12-12T09:05:09.021Z,6.93
2022-12-12T09:07:36.427Z,7.80
2022-12-12T09:10:03.328Z,8.38
2022-12-12T09:12:29.974Z,7.62
2022-12-12T09:14:56.737Z,7.57
2022-12-12T09:17:23.333Z,7.65
2022-12-12T09:19:49.957Z,7.93
2022-12-12T09:22:17.949Z,6.80
2022-12-12T09:24:44.611Z,7.68
2022-12-12T09:27:11.221Z,9.70
2022-12-12T09:29:37.831Z,8.27
2022-12-12T09:32:06.611Z,8.05
2022-12-12T09:34:34.575Z,9.13
2022-12-12T09:37:15.859Z,13.80
2022-12-12T09:50:35.550Z,7.82
2022-12-12T09:53:06.579Z,7.57
2022-12-12T09:59:57.304Z,7.43
2022-12-12T10:02:40.407Z,7.95
2022-12-12T10:05:34.536Z,6.93
2022-12-12T10:08:24.624Z,7.60
2022-12-12T10:10:59.065Z,7.10
2022-12-12T10:13:29.898Z,8.50
2022-12-12T10:16:03.182Z,7.43
2022-12-12T10:18:38.746Z,7.90
2022-12-12T10:21:14.202Z,6.75
2022-12-12T10:23:50.758Z,7.18
2022-12-12T10:26:18.796Z,7.80
2022-12-12T10:32:40.874Z,7.12
2022-12-12T10:35:26.335Z,7.82
2022-12-12T10:38:14.791Z,7.55
2022-12-12T10:41:03.836Z,8.05
2022-12-12T10:43:42.346Z,7.72
2022-12-12T10:49:59.848Z,6.65
2022-12-12T10:52:28.663Z,6.68
2022-12-12T10:54:59.314Z,6.10
2022-12-12T10:57:28.656Z,5.93
2022-12-12T10:59:57.849Z,5.15
2022-12-12T11:02:35.067Z,5.55
2022-12-12T11:05:25.062Z,5.00
2022-12-12T11:08:05.459Z,5.37
2022-12-12T11:10:36.971Z,4.87
2022-12-12T11:13:15.526Z,5.43
2022-12-12T11:15:57.199Z,4.70
2022-12-12T11:18:25.036Z,5.55
2022-12-12T11:21:13.536Z,5.35
2022-12-12T11:23:47.775Z,6.00
2022-12-12T11:26:20.664Z,5.25
2022-12-12T11:29:09.119Z,6.25
2022-12-12T11:31:35.843Z,5.47
2022-12-12T11:34:06.410Z,6.05
2022-12-12T11:39:29.122Z,5.50
2022-12-12T11:42:23.500Z,5.90
2022-12-12T11:44:59.722Z,5.78
2022-12-12T11:47:29.546Z,5.93
2022-12-12T11:50:01.959Z,7.00
2022-12-12T11:52:33.453Z,5.65
2022-12-12T11:55:01.393Z,6.18
2022-12-12T11:57:46.390Z,5.78
2022-12-12T12:00:18.994Z,6.18
2022-12-12T12:02:54.191Z,6.72
2022-12-12T12:05:26.721Z,6.87
2022-12-12T12:08:35.769Z,6.75
2022-12-12T12:11:33.353Z,6.50
2022-12-12T12:14:08.875Z,6.65
2022-12-12T12:16:48.766Z,6.47
2022-12-12T12:25:38.716Z,6.20
2022-12-12T12:28:47.137Z,7.15
2022-12-12T12:31:32.617Z,7.22
2022-12-12T12:34:38.153Z,7.28
2022-12-12T12:37:26.595Z,7.60
2022-12-12T12:40:27.324Z,7.32
2022-12-12T12:43:35.863Z,6.85
2022-12-12T12:46:15.280Z,7.00
2022-12-12T12:48:47.808Z,7.07
2022-12-12T12:51:37.132Z,6.62
2022-12-12T12:54:35.875Z,7.20
2022-12-12T12:57:09.782Z,7.32
2022-12-12T12:59:44.107Z,7.68
2022-12-12T13:02:27.397Z,7.20
2022-12-12T13:05:07.213Z,6.53
2022-12-12T13:07:51.412Z,6.45
2022-12-12T13:10:27.275Z,6.47
2022-12-12T13:13:09.756Z,6.03
2022-12-12T13:15:43.895Z,5.70
2022-12-12T13:18:16.890Z,6.78
2022-12-12T13:20:50.542Z,6.43
2022-12-12T13:23:30.728Z,6.00
2022-12-12T13:26:06.284Z,6.22
2022-12-12T13:28:45.910Z,5.65
2022-12-12T13:31:40.606Z,6.60
2022-12-12T13:37:06.065Z,5.90
2022-12-12T13:39:38.232Z,6.12
2022-12-12T13:42:05.992Z,6.27
2022-12-12T13:49:33.722Z,5.95
2022-12-12T13:52:25.353Z,5.82
2022-12-12T13:57:41.693Z,6.07
2022-12-12T14:00:16.975Z,6.30
2022-12-12T14:03:09.721Z,5.82
2022-12-12T14:06:18.798Z,5.72
2022-12-12T14:08:51.964Z,6.35
2022-12-12T14:14:09.669Z,6.12
2022-12-12T14:17:43.368Z,5.62
2022-12-12T14:20:41.916Z,6.40
2022-12-12T14:23:24.237Z,5.62
2022-12-12T14:25:51.133Z,7.10
2022-12-12T14:28:27.071Z,6.32
2022-12-12T14:31:05.460Z,6.30
2022-12-12T14:34:01.818Z,6.40
2022-12-12T14:37:06.971Z,6.57
2022-12-12T14:39:51.639Z,6.75
2022-12-12T14:43:20.263Z,6.05
2022-12-12T14:45:36.685Z,7.65
2022-12-12T14:48:13.763Z,8.00
2022-12-12T14:50:46.526Z,8.15
2022-12-12T14:53:20.515Z,7.65
2022-12-12T14:56:11.564Z,8.38
2022-12-12T14:59:16.659Z,8.27
2022-12-12T15:01:45.561Z,8.80
2022-12-12T15:04:40.383Z,12.00
2022-12-12T15:07:23.002Z,8.48
2022-12-12T15:09:49.679Z,8.32
2022-12-12T15:12:20.454Z,7.82
2022-12-12T15:15:33.348Z,7.93
2022-12-12T15:18:39.312Z,7.47
2022-12-12T15:29:42.608Z,8.63
2022-12-12T15:32:19.116Z,7.68
2022-12-12T15:34:48.634Z,8.48
2022-12-12T15:37:17.889Z,8.20
2022-12-12T15:39:44.919Z,8.35
2022-12-12T15:42:14.549Z,8.75
2022-12-12T15:44:46.694Z,7.93
2022-12-12T15:47:14.825Z,9.07
2022-12-12T15:49:44.144Z,8.65
2022-12-12T15:52:17.909Z,9.00
2022-12-12T15:54:47.050Z,8.02
2022-12-12T15:57:18.583Z,7.57
2022-12-12T15:59:45.864Z,8.20
2022-12-12T16:02:28.891Z,7.87
2022-12-12T16:05:02.009Z,8.60
2022-12-12T16:10:22.249Z,8.52
2022-12-12T16:13:20.831Z,10.35
2022-12-12T16:15:47.649Z,9.75
2022-12-12T16:18:14.145Z,9.88
2022-12-12T16:20:54.065Z,9.80
2022-12-12T16:23:32.266Z,8.80
2022-12-12T16:26:00.060Z,8.73
2022-12-12T16:34:11.591Z,8.23
2022-12-12T16:36:42.220Z,9.27
2022-12-12T16:39:10.991Z,8.45
2022-12-12T16:41:37.759Z,8.98
2022-12-12T16:44:04.275Z,8.10
2022-12-12T16:46:31.934Z,8.70
2022-12-12T16:49:04.378Z,9.75
2022-12-12T16:51:33.785Z,9.07
2022-12-12T16:54:00.705Z,9.73
2022-12-12T16:56:28.352Z,8.15
2022-12-12T16:58:56.219Z,7.12
2022-12-12T17:01:23.029Z,7.47
2022-12-12T17:03:49.778Z,7.85
2022-12-12T17:06:16.508Z,8.10
2022-12-12T17:08:43.169Z,9.52
2022-12-12T17:11:11.452Z,7.75
2022-12-12T17:16:39.575Z,8.50
2022-12-12T17:24:23.175Z,7.87
2022-12-12T17:26:53.026Z,7.35
2022-12-12T17:29:19.638Z,8.27
2022-12-12T17:31:46.618Z,8.25
2022-12-12T17:34:13.525Z,7.95
2022-12-12T17:36:40.314Z,7.55
2022-12-12T17:39:06.904Z,9.27
2022-12-12T17:41:33.528Z,8.88
2022-12-12T17:44:00.109Z,8.98
2022-12-12T17:46:28.677Z,8.98
2022-12-12T17:48:58.319Z,10.93
2022-12-12T17:51:25.584Z,9.55
2022-12-12T17:53:52.767Z,9.05
2022-12-12T17:56:25.050Z,9.25
2022-12-12T17:58:52.451Z,10.37
2022-12-12T18:01:21.856Z,9.15
2022-12-12T18:03:48.722Z,8.95
2022-12-12T18:06:16.864Z,12.55
2022-12-12T18:08:44.482Z,8.88
2022-12-12T18:11:14.991Z,9.55
2022-12-12T18:13:42.371Z,9.07
2022-12-12T18:16:11.612Z,9.93
2022-12-12T18:18:39.163Z,10.13
2022-12-12T18:21:51.771Z,9.18
2022-12-12T18:24:07.414Z,10.63
2022-12-12T18:26:34.225Z,9.65
2022-12-12T18:29:03.106Z,10.65
2022-12-12T18:31:30.820Z,9.50
2022-12-12T18:33:57.607Z,9.93
2022-12-12T18:36:27.730Z,10.50
2022-12-12T18:38:59.691Z,8.85
2022-12-12T18:41:28.269Z,11.15
2022-12-12T18:44:10.622Z,10.63
2022-12-12T18:46:42.791Z,11.15
2022-12-12T18:54:29.064Z,9.73
2022-12-12T18:56:59.726Z,10.40
2022-12-12T18:59:26.287Z,9.77
2022-12-12T19:01:52.976Z,10.02
2022-12-12T19:04:23.443Z,10.70
2022-12-12T19:06:50.905Z,9.38
2022-12-12T19:09:19.400Z,9.02
2022-12-12T19:11:47.504Z,9.15
2022-12-12T19:14:15.992Z,9.35
2022-12-12T19:16:43.935Z,10.32
2022-12-12T19:19:12.078Z,10.55
2022-12-12T19:22:08.830Z,10.45
2022-12-12T19:24:45.594Z,9.77
2022-12-12T19:27:12.143Z,10.07
2022-12-12T19:29:38.673Z,9.93
2022-12-12T19:32:05.700Z,10.40
2022-12-12T19:34:32.328Z,11.00
2022-12-12T19:36:59.222Z,10.48
2022-12-12T19:39:25.741Z,9.07
2022-12-12T19:41:52.279Z,9.25
2022-12-12T19:44:18.851Z,9.38
2022-12-12T19:46:46.345Z,11.07
2022-12-12T19:49:14.852Z,9.95
2022-12-12T19:51:42.806Z,9.52
2022-12-12T19:54:13.392Z,10.85
2022-12-12T19:56:43.654Z,8.95
2022-12-12T19:59:18.672Z,8.77
2022-12-12T20:01:45.869Z,9.15
2022-12-12T20:04:21.993Z,9.38
2022-12-12T20:06:49.813Z,9.80
2022-12-12T20:09:22.995Z,9.25
2022-12-12T20:14:22.184Z,7.87
2022-12-12T20:16:49.122Z,7.68
2022-12-12T20:19:16.238Z,8.50
2022-12-12T20:22:02.057Z,8.95
2022-12-12T20:24:29.517Z,9.25
2022-12-12T20:26:57.022Z,9.07
2022-12-12T20:29:23.770Z,9.18
2022-12-12T20:31:50.824Z,9.20
2022-12-12T20:34:21.962Z,9.35
2022-12-12T20:36:50.275Z,9.75
2022-12-12T20:39:20.525Z,9.60
2022-12-12T20:41:47.598Z,9.85
2022-12-12T20:44:14.948Z,9.60
2022-12-12T20:46:46.569Z,9.88
2022-12-12T20:49:16.763Z,10.00
2022-12-12T20:51:59.674Z,9.73
2022-12-12T20:54:28.261Z,9.65
2022-12-12T20:56:55.875Z,9.93
2022-12-12T20:59:22.789Z,9.70
2022-12-12T21:01:49.629Z,9.38
2022-12-12T21:04:16.415Z,9.07
2022-12-12T21:06:48.018Z,10.43
2022-12-12T21:09:22.626Z,11.03
2022-12-12T21:11:50.852Z,10.05
2022-12-12T21:14:17.455Z,10.32
2022-12-12T21:16:44.003Z,10.05
2022-12-12T21:19:12.823Z,10.52
2022-12-12T21:21:41.481Z,10.25
2022-12-12T21:24:08.493Z,9.55
2022-12-12T21:26:35.239Z,9.27
2022-12-12T21:29:03.040Z,9.93
2022-12-12T21:31:32.299Z,9.68
2022-12-12T21:33:59.971Z,9.70
2022-12-12T21:36:27.963Z,9.60
2022-12-12T21:38:56.857Z,9.90
2022-12-12T21:41:23.984Z,9.73
2022-12-12T21:43:50.968Z,9.70
2022-12-12T21:46:20.869Z,9.48
2022-12-12T21:49:08.781Z,9.65
2022-12-12T21:51:35.577Z,9.23
2022-12-12T21:54:03.793Z,10.25
2022-12-12T21:56:30.817Z,9.82
2022-12-12T21:58:58.090Z,9.73
2022-12-12T22:01:24.878Z,9.55
2022-12-12T22:03:51.707Z,10.75
2022-12-12T22:06:21.247Z,10.13
2022-12-12T22:08:48.466Z,9.50
2022-12-12T22:11:39.793Z,10.48
2022-12-12T22:14:05.367Z,9.15
2022-12-12T22:16:34.965Z,9.50
2022-12-12T22:19:06.047Z,9.57
2022-12-12T22:21:33.694Z,10.02
2022-12-12T22:24:00.929Z,10.70
2022-12-12T22:26:48.788Z,9.07
2022-12-12T22:29:17.414Z,9.73
2022-12-12T22:31:45.049Z,9.32
2022-12-12T22:34:18.238Z,9.13
2022-12-12T22:39:20.671Z,9.60
2022-12-12T22:41:47.856Z,9.18
2022-12-12T22:44:17.141Z,9.88
2022-12-12T22:46:48.749Z,9.32
2022-12-12T22:52:04.392Z,8.90
2022-12-12T22:54:31.071Z,9.38
2022-12-12T22:56:59.215Z,9.52
2022-12-12T22:59:56.891Z,9.80
2022-12-12T23:03:10.626Z,9.52
2022-12-12T23:05:37.215Z,10.13
2022-12-12T23:08:18.947Z,9.80
2022-12-12T23:10:45.531Z,9.50
2022-12-12T23:13:12.053Z,8.93
2022-12-12T23:15:41.495Z,9.25
2022-12-12T23:18:08.086Z,9.50
2022-12-12T23:20:34.659Z,9.73
2022-12-12T23:23:01.242Z,8.52
2022-12-12T23:25:27.768Z,9.20
2022-12-12T23:27:54.366Z,9.15
2022-12-12T23:30:20.897Z,9.20
2022-12-12T23:32:47.452Z,8.45
2022-12-12T23:35:26.090Z,9.75
2022-12-12T23:37:52.610Z,8.65
2022-12-12T23:40:19.147Z,8.93
2022-12-12T23:42:45.695Z,9.02
2022-12-12T23:46:18.924Z,8.60
2022-12-12T23:48:58.846Z,9.13
2022-12-12T23:51:27.103Z,8.82
2022-12-12T23:53:58.192Z,9.13
2022-12-12T23:56:26.398Z,9.63
2022-12-12T23:58:54.304Z,9.02
